Terminal Aerodrome Forecast
Issued by NWS

Home | Current Version | Previous Version | Text Only | Print | Product List | Glossary On
Versions: 1 2 3 4 5 6 7 8 9 10 11 12 13 14 15 16 17 18 19 20 21 22 23 24 25
000
FTUS43 KLOT 211120
TAFDPA
TAF
KDPA 211120Z 2112/2212 VRB05KT P6SM SCT035 BKN090 OVC250
     FM211500 12007KT P6SM SCT040 BKN100 PROB30 2122/2202 5SM TSRA
      BKN050CB
     FM220500 18006KT P6SM BKN100
      TEMPO 2209/2212 3SM TSRA BKN035CB=

USA.gov is the U.S. government's official web portal to all federal, state and local government web resources and services.